sensor_id;sensor_type;location;lat;lon;timestamp;P1;durP1;ratioP1;P2;durP2;ratioP2
12846;SDS011;6492;48.128;8.320;2023-04-24T00:03:57;1.67;;;0.83;;
12846;SDS011;6492;48.128;8.320;2023-04-24T00:07:59;1.73;;;1.20;;
12846;SDS011;6492;48.128;8.320;2023-04-24T00:12:01;1.27;;;0.90;;
12846;SDS011;6492;48.128;8.320;2023-04-24T00:16:04;1.20;;;0.87;;
12846;SDS011;6492;48.128;8.320;2023-04-24T00:20:08;1.93;;;0.90;;
12846;SDS011;6492;48.128;8.320;2023-04-24T00:24:11;1.57;;;1.00;;
12846;SDS011;6492;48.128;8.320;2023-04-24T00:28:12;1.07;;;0.70;;
12846;SDS011;6492;48.128;8.320;2023-04-24T00:32:14;0.80;;;0.73;;
12846;SDS011;6492;48.128;8.320;2023-04-24T00:36:18;3.53;;;0.77;;
12846;SDS011;6492;48.128;8.320;2023-04-24T00:40:38;0.90;;;0.90;;
12846;SDS011;6492;48.128;8.320;2023-04-24T00:44:39;1.87;;;0.90;;
12846;SDS011;6492;48.128;8.320;2023-04-24T00:48:41;1.53;;;0.90;;
12846;SDS011;6492;48.128;8.320;2023-04-24T00:52:45;1.70;;;1.10;;
12846;SDS011;6492;48.128;8.320;2023-04-24T00:56:47;0.90;;;0.90;;
12846;SDS011;6492;48.128;8.320;2023-04-24T01:00:49;1.73;;;1.00;;
12846;SDS011;6492;48.128;8.320;2023-04-24T01:04:54;2.47;;;1.00;;
12846;SDS011;6492;48.128;8.320;2023-04-24T01:08:57;1.47;;;1.03;;
12846;SDS011;6492;48.128;8.320;2023-04-24T01:13:00;2.73;;;1.40;;
12846;SDS011;6492;48.128;8.320;2023-04-24T01:17:02;1.90;;;0.97;;
12846;SDS011;6492;48.128;8.320;2023-04-24T01:21:04;0.63;;;0.63;;
12846;SDS011;6492;48.128;8.320;2023-04-24T01:25:09;0.67;;;0.67;;
12846;SDS011;6492;48.128;8.320;2023-04-24T01:29:11;0.87;;;0.60;;
12846;SDS011;6492;48.128;8.320;2023-04-24T01:33:13;0.60;;;0.60;;
12846;SDS011;6492;48.128;8.320;2023-04-24T01:37:15;0.80;;;0.60;;
12846;SDS011;6492;48.128;8.320;2023-04-24T01:41:19;0.90;;;0.53;;
12846;SDS011;6492;48.128;8.320;2023-04-24T01:45:21;1.40;;;0.60;;
12846;SDS011;6492;48.128;8.320;2023-04-24T01:49:23;0.33;;;0.33;;
12846;SDS011;6492;48.128;8.320;2023-04-24T01:53:24;0.60;;;0.60;;
12846;SDS011;6492;48.128;8.320;2023-04-24T01:57:27;1.13;;;0.70;;
12846;SDS011;6492;48.128;8.320;2023-04-24T02:01:32;2.47;;;0.40;;
12846;SDS011;6492;48.128;8.320;2023-04-24T02:05:35;0.77;;;0.73;;
12846;SDS011;6492;48.128;8.320;2023-04-24T02:09:39;1.10;;;0.60;;
12846;SDS011;6492;48.128;8.320;2023-04-24T02:13:42;1.20;;;0.60;;
12846;SDS011;6492;48.128;8.320;2023-04-24T02:17:44;1.53;;;0.80;;
12846;SDS011;6492;48.128;8.320;2023-04-24T02:21:45;1.03;;;0.67;;
12846;SDS011;6492;48.128;8.320;2023-04-24T02:25:47;0.63;;;0.43;;
12846;SDS011;6492;48.128;8.320;2023-04-24T02:29:50;1.57;;;0.87;;
12846;SDS011;6492;48.128;8.320;2023-04-24T02:33:52;1.97;;;0.80;;
12846;SDS011;6492;48.128;8.320;2023-04-24T02:37:54;2.00;;;0.90;;
12846;SDS011;6492;48.128;8.320;2023-04-24T02:41:55;1.00;;;0.80;;
12846;SDS011;6492;48.128;8.320;2023-04-24T02:45:59;1.57;;;0.90;;
12846;SDS011;6492;48.128;8.320;2023-04-24T02:50:01;0.80;;;0.80;;
12846;SDS011;6492;48.128;8.320;2023-04-24T02:54:04;2.40;;;1.07;;
12846;SDS011;6492;48.128;8.320;2023-04-24T02:58:06;0.80;;;0.70;;
12846;SDS011;6492;48.128;8.320;2023-04-24T03:02:09;1.00;;;0.70;;
12846;SDS011;6492;48.128;8.320;2023-04-24T03:06:11;1.80;;;1.00;;
12846;SDS011;6492;48.128;8.320;2023-04-24T03:10:12;1.80;;;0.90;;
12846;SDS011;6492;48.128;8.320;2023-04-24T03:14:14;1.20;;;0.90;;
12846;SDS011;6492;48.128;8.320;2023-04-24T03:18:17;1.20;;;0.97;;
12846;SDS011;6492;48.128;8.320;2023-04-24T03:22:19;0.80;;;0.80;;
12846;SDS011;6492;48.128;8.320;2023-04-24T03:26:21;2.37;;;0.80;;
12846;SDS011;6492;48.128;8.320;2023-04-24T03:30:23;1.07;;;0.80;;
12846;SDS011;6492;48.128;8.320;2023-04-24T03:34:26;1.13;;;0.90;;
12846;SDS011;6492;48.128;8.320;2023-04-24T03:38:28;0.70;;;0.60;;
12846;SDS011;6492;48.128;8.320;2023-04-24T03:42:29;3.70;;;0.90;;
12846;SDS011;6492;48.128;8.320;2023-04-24T03:46:31;1.33;;;0.90;;
12846;SDS011;6492;48.128;8.320;2023-04-24T03:50:34;1.10;;;1.00;;
12846;SDS011;6492;48.128;8.320;2023-04-24T03:54:36;0.57;;;0.57;;
12846;SDS011;6492;48.128;8.320;2023-04-24T03:58:54;1.53;;;0.97;;
12846;SDS011;6492;48.128;8.320;2023-04-24T04:02:56;0.70;;;0.60;;
12846;SDS011;6492;48.128;8.320;2023-04-24T04:06:59;0.60;;;0.60;;
12846;SDS011;6492;48.128;8.320;2023-04-24T04:11:02;1.23;;;0.60;;
12846;SDS011;6492;48.128;8.320;2023-04-24T04:15:04;0.50;;;0.50;;
12846;SDS011;6492;48.128;8.320;2023-04-24T04:19:07;0.57;;;0.57;;
12846;SDS011;6492;48.128;8.320;2023-04-24T04:23:10;3.90;;;1.80;;
12846;SDS011;6492;48.128;8.320;2023-04-24T04:27:12;3.10;;;2.00;;
12846;SDS011;6492;48.128;8.320;2023-04-24T04:31:15;2.80;;;1.97;;
12846;SDS011;6492;48.128;8.320;2023-04-24T04:35:16;2.23;;;1.87;;
12846;SDS011;6492;48.128;8.320;2023-04-24T04:39:21;3.03;;;1.93;;
12846;SDS011;6492;48.128;8.320;2023-04-24T04:43:23;3.83;;;2.50;;
12846;SDS011;6492;48.128;8.320;2023-04-24T04:47:25;2.10;;;1.90;;
12846;SDS011;6492;48.128;8.320;2023-04-24T04:51:28;1.70;;;1.60;;
12846;SDS011;6492;48.128;8.320;2023-04-24T04:55:32;2.57;;;2.03;;
12846;SDS011;6492;48.128;8.320;2023-04-24T04:59:34;2.87;;;2.10;;
12846;SDS011;6492;48.128;8.320;2023-04-24T05:03:37;2.47;;;2.20;;
12846;SDS011;6492;48.128;8.320;2023-04-24T05:07:38;2.17;;;1.97;;
12846;SDS011;6492;48.128;8.320;2023-04-24T05:11:42;2.33;;;2.10;;
12846;SDS011;6492;48.128;8.320;2023-04-24T05:15:43;2.83;;;2.33;;
12846;SDS011;6492;48.128;8.320;2023-04-24T05:19:45;3.03;;;2.70;;
12846;SDS011;6492;48.128;8.320;2023-04-24T05:23:48;2.97;;;2.47;;
12846;SDS011;6492;48.128;8.320;2023-04-24T05:27:51;3.33;;;2.63;;
12846;SDS011;6492;48.128;8.320;2023-04-24T05:31:53;5.17;;;3.40;;
12846;SDS011;6492;48.128;8.320;2023-04-24T05:35:55;2.93;;;2.43;;
12846;SDS011;6492;48.128;8.320;2023-04-24T05:39:57;3.07;;;2.60;;
12846;SDS011;6492;48.128;8.320;2023-04-24T05:44:00;3.20;;;2.63;;
12846;SDS011;6492;48.128;8.320;2023-04-24T05:48:02;2.93;;;2.73;;
12846;SDS011;6492;48.128;8.320;2023-04-24T05:52:04;3.50;;;2.87;;
12846;SDS011;6492;48.128;8.320;2023-04-24T05:56:08;3.80;;;2.57;;
12846;SDS011;6492;48.128;8.320;2023-04-24T06:00:12;3.03;;;2.50;;
12846;SDS011;6492;48.128;8.320;2023-04-24T06:08:47;2.17;;;1.97;;
12846;SDS011;6492;48.128;8.320;2023-04-24T06:12:48;2.87;;;1.90;;
12846;SDS011;6492;48.128;8.320;2023-04-24T06:16:52;3.57;;;1.97;;
12846;SDS011;6492;48.128;8.320;2023-04-24T06:20:53;3.23;;;2.13;;
12846;SDS011;6492;48.128;8.320;2023-04-24T06:24:56;2.70;;;1.83;;
12846;SDS011;6492;48.128;8.320;2023-04-24T06:28:57;2.43;;;1.90;;
12846;SDS011;6492;48.128;8.320;2023-04-24T06:33:01;3.10;;;2.17;;
12846;SDS011;6492;48.128;8.320;2023-04-24T06:37:03;2.20;;;2.00;;
12846;SDS011;6492;48.128;8.320;2023-04-24T06:41:05;2.57;;;2.37;;
12846;SDS011;6492;48.128;8.320;2023-04-24T06:45:07;2.73;;;2.40;;
12846;SDS011;6492;48.128;8.320;2023-04-24T06:49:10;2.60;;;2.40;;
12846;SDS011;6492;48.128;8.320;2023-04-24T06:53:12;3.57;;;2.47;;
12846;SDS011;6492;48.128;8.320;2023-04-24T06:57:14;2.87;;;2.20;;
12846;SDS011;6492;48.128;8.320;2023-04-24T07:01:17;2.90;;;2.40;;
12846;SDS011;6492;48.128;8.320;2023-04-24T07:05:20;2.77;;;2.47;;
12846;SDS011;6492;48.128;8.320;2023-04-24T07:09:22;4.17;;;2.30;;
12846;SDS011;6492;48.128;8.320;2023-04-24T07:13:25;3.37;;;2.27;;
12846;SDS011;6492;48.128;8.320;2023-04-24T07:17:27;3.47;;;2.53;;
12846;SDS011;6492;48.128;8.320;2023-04-24T07:21:30;3.43;;;2.60;;
12846;SDS011;6492;48.128;8.320;2023-04-24T07:25:32;2.30;;;2.10;;
12846;SDS011;6492;48.128;8.320;2023-04-24T07:29:34;3.53;;;2.47;;
12846;SDS011;6492;48.128;8.320;2023-04-24T07:33:36;2.90;;;2.60;;
12846;SDS011;6492;48.128;8.320;2023-04-24T07:37:39;2.83;;;2.30;;
12846;SDS011;6492;48.128;8.320;2023-04-24T07:41:45;4.60;;;2.53;;
12846;SDS011;6492;48.128;8.320;2023-04-24T07:45:47;4.57;;;2.63;;
12846;SDS011;6492;48.128;8.320;2023-04-24T07:49:49;4.03;;;2.30;;
12846;SDS011;6492;48.128;8.320;2023-04-24T07:53:52;3.27;;;2.57;;
12846;SDS011;6492;48.128;8.320;2023-04-24T07:57:54;3.17;;;2.47;;
12846;SDS011;6492;48.128;8.320;2023-04-24T08:01:56;2.40;;;2.17;;
12846;SDS011;6492;48.128;8.320;2023-04-24T08:05:58;3.70;;;2.33;;
12846;SDS011;6492;48.128;8.320;2023-04-24T08:10:01;2.77;;;2.50;;
12846;SDS011;6492;48.128;8.320;2023-04-24T08:14:03;7.10;;;2.63;;
12846;SDS011;6492;48.128;8.320;2023-04-24T08:18:05;2.87;;;2.53;;
12846;SDS011;6492;48.128;8.320;2023-04-24T08:22:07;2.53;;;2.33;;
12846;SDS011;6492;48.128;8.320;2023-04-24T08:26:10;4.57;;;2.43;;
12846;SDS011;6492;48.128;8.320;2023-04-24T08:30:12;3.07;;;2.40;;
12846;SDS011;6492;48.128;8.320;2023-04-24T08:34:14;3.93;;;2.57;;
12846;SDS011;6492;48.128;8.320;2023-04-24T08:38:15;3.77;;;3.10;;
12846;SDS011;6492;48.128;8.320;2023-04-24T08:42:19;2.77;;;2.27;;
12846;SDS011;6492;48.128;8.320;2023-04-24T08:46:22;3.37;;;2.70;;
12846;SDS011;6492;48.128;8.320;2023-04-24T08:50:25;4.27;;;3.57;;
12846;SDS011;6492;48.128;8.320;2023-04-24T08:54:27;4.00;;;3.30;;
12846;SDS011;6492;48.128;8.320;2023-04-24T08:58:31;5.37;;;3.20;;
12846;SDS011;6492;48.128;8.320;2023-04-24T09:02:34;5.53;;;3.10;;
12846;SDS011;6492;48.128;8.320;2023-04-24T09:06:36;4.50;;;3.00;;
12846;SDS011;6492;48.128;8.320;2023-04-24T09:10:38;5.83;;;3.80;;
12846;SDS011;6492;48.128;8.320;2023-04-24T09:19:10;4.97;;;3.83;;
12846;SDS011;6492;48.128;8.320;2023-04-24T09:23:17;4.73;;;3.40;;
12846;SDS011;6492;48.128;8.320;2023-04-24T09:27:18;3.90;;;3.50;;
12846;SDS011;6492;48.128;8.320;2023-04-24T09:31:26;5.37;;;3.57;;
12846;SDS011;6492;48.128;8.320;2023-04-24T09:35:29;3.80;;;3.27;;
12846;SDS011;6492;48.128;8.320;2023-04-24T09:39:33;4.50;;;3.77;;
12846;SDS011;6492;48.128;8.320;2023-04-24T09:43:35;3.13;;;2.83;;
12846;SDS011;6492;48.128;8.320;2023-04-24T09:47:38;4.63;;;2.80;;
12846;SDS011;6492;48.128;8.320;2023-04-24T09:51:40;3.93;;;3.10;;
12846;SDS011;6492;48.128;8.320;2023-04-24T09:55:44;3.07;;;2.67;;
12846;SDS011;6492;48.128;8.320;2023-04-24T09:59:48;4.10;;;3.00;;
12846;SDS011;6492;48.128;8.320;2023-04-24T10:03:55;3.40;;;2.53;;
12846;SDS011;6492;48.128;8.320;2023-04-24T10:07:57;3.03;;;2.60;;
12846;SDS011;6492;48.128;8.320;2023-04-24T10:12:04;2.83;;;2.50;;
12846;SDS011;6492;48.128;8.320;2023-04-24T10:16:08;3.23;;;2.60;;
12846;SDS011;6492;48.128;8.320;2023-04-24T10:20:12;3.47;;;2.57;;
12846;SDS011;6492;48.128;8.320;2023-04-24T10:24:14;3.60;;;2.37;;
12846;SDS011;6492;48.128;8.320;2023-04-24T10:28:17;2.50;;;2.30;;
12846;SDS011;6492;48.128;8.320;2023-04-24T10:32:20;3.03;;;2.20;;
12846;SDS011;6492;48.128;8.320;2023-04-24T10:36:23;4.07;;;2.27;;
12846;SDS011;6492;48.128;8.320;2023-04-24T10:40:29;2.97;;;1.80;;
12846;SDS011;6492;48.128;8.320;2023-04-24T10:44:35;2.80;;;1.80;;
12846;SDS011;6492;48.128;8.320;2023-04-24T10:48:41;3.50;;;2.00;;
12846;SDS011;6492;48.128;8.320;2023-04-24T10:57:26;4.17;;;1.83;;
12846;SDS011;6492;48.128;8.320;2023-04-24T11:01:31;2.87;;;1.90;;
12846;SDS011;6492;48.128;8.320;2023-04-24T11:19:26;1.60;;;1.27;;
12846;SDS011;6492;48.128;8.320;2023-04-24T11:23:45;1.77;;;1.40;;
12846;SDS011;6492;48.128;8.320;2023-04-24T11:27:48;1.13;;;1.03;;
12846;SDS011;6492;48.128;8.320;2023-04-24T11:31:51;2.40;;;1.50;;
12846;SDS011;6492;48.128;8.320;2023-04-24T11:35:52;1.97;;;1.30;;
12846;SDS011;6492;48.128;8.320;2023-04-24T11:39:55;1.40;;;1.30;;
12846;SDS011;6492;48.128;8.320;2023-04-24T11:43:59;3.10;;;1.37;;
12846;SDS011;6492;48.128;8.320;2023-04-24T11:48:02;1.53;;;1.37;;
12846;SDS011;6492;48.128;8.320;2023-04-24T11:52:04;2.13;;;1.37;;
12846;SDS011;6492;48.128;8.320;2023-04-24T11:56:08;1.97;;;1.30;;
12846;SDS011;6492;48.128;8.320;2023-04-24T12:00:14;2.43;;;1.30;;
12846;SDS011;6492;48.128;8.320;2023-04-24T12:04:18;1.77;;;1.40;;
12846;SDS011;6492;48.128;8.320;2023-04-24T12:08:26;1.87;;;1.63;;
12846;SDS011;6492;48.128;8.320;2023-04-24T12:12:28;1.87;;;1.40;;
12846;SDS011;6492;48.128;8.320;2023-04-24T12:16:32;2.40;;;1.70;;
12846;SDS011;6492;48.128;8.320;2023-04-24T12:20:35;2.00;;;1.57;;
12846;SDS011;6492;48.128;8.320;2023-04-24T12:24:54;2.07;;;1.83;;
12846;SDS011;6492;48.128;8.320;2023-04-24T12:29:00;2.03;;;1.60;;
12846;SDS011;6492;48.128;8.320;2023-04-24T12:33:05;1.83;;;1.50;;
12846;SDS011;6492;48.128;8.320;2023-04-24T12:37:09;1.67;;;1.57;;
12846;SDS011;6492;48.128;8.320;2023-04-24T12:41:12;2.13;;;1.53;;
12846;SDS011;6492;48.128;8.320;2023-04-24T12:45:15;1.70;;;1.60;;
12846;SDS011;6492;48.128;8.320;2023-04-24T12:49:29;1.60;;;1.50;;
12846;SDS011;6492;48.128;8.320;2023-04-24T12:53:31;2.73;;;1.50;;
12846;SDS011;6492;48.128;8.320;2023-04-24T12:57:42;2.27;;;1.80;;
12846;SDS011;6492;48.128;8.320;2023-04-24T13:01:44;2.47;;;2.27;;
12846;SDS011;6492;48.128;8.320;2023-04-24T13:05:47;1.80;;;1.57;;
12846;SDS011;6492;48.128;8.320;2023-04-24T13:09:49;2.37;;;1.90;;
12846;SDS011;6492;48.128;8.320;2023-04-24T13:13:52;3.43;;;1.70;;
12846;SDS011;6492;48.128;8.320;2023-04-24T13:17:53;2.53;;;1.80;;
12846;SDS011;6492;48.128;8.320;2023-04-24T13:21:56;2.10;;;1.90;;
12846;SDS011;6492;48.128;8.320;2023-04-24T13:25:59;2.00;;;1.80;;
12846;SDS011;6492;48.128;8.320;2023-04-24T13:30:01;2.80;;;2.27;;
12846;SDS011;6492;48.128;8.320;2023-04-24T13:34:03;3.33;;;2.00;;
12846;SDS011;6492;48.128;8.320;2023-04-24T13:38:06;3.20;;;2.03;;
12846;SDS011;6492;48.128;8.320;2023-04-24T13:42:08;3.40;;;2.03;;
12846;SDS011;6492;48.128;8.320;2023-04-24T13:50:23;2.20;;;1.93;;
12846;SDS011;6492;48.128;8.320;2023-04-24T13:54:26;2.20;;;1.90;;
12846;SDS011;6492;48.128;8.320;2023-04-24T13:58:28;2.07;;;1.70;;
12846;SDS011;6492;48.128;8.320;2023-04-24T14:02:32;3.27;;;2.10;;
12846;SDS011;6492;48.128;8.320;2023-04-24T14:06:34;2.40;;;1.83;;
12846;SDS011;6492;48.128;8.320;2023-04-24T14:10:43;2.73;;;1.77;;
12846;SDS011;6492;48.128;8.320;2023-04-24T14:14:45;3.93;;;1.70;;
12846;SDS011;6492;48.128;8.320;2023-04-24T14:18:48;2.23;;;1.73;;
12846;SDS011;6492;48.128;8.320;2023-04-24T14:22:58;2.97;;;2.27;;
12846;SDS011;6492;48.128;8.320;2023-04-24T14:27:01;2.57;;;2.37;;
12846;SDS011;6492;48.128;8.320;2023-04-24T14:31:03;2.77;;;2.10;;
12846;SDS011;6492;48.128;8.320;2023-04-24T14:35:05;2.30;;;2.10;;
12846;SDS011;6492;48.128;8.320;2023-04-24T14:39:08;2.03;;;1.83;;
12846;SDS011;6492;48.128;8.320;2023-04-24T14:43:29;3.03;;;2.40;;
12846;SDS011;6492;48.128;8.320;2023-04-24T14:47:32;3.13;;;1.70;;
12846;SDS011;6492;48.128;8.320;2023-04-24T14:51:34;2.23;;;2.03;;
12846;SDS011;6492;48.128;8.320;2023-04-24T14:55:36;2.43;;;1.50;;
12846;SDS011;6492;48.128;8.320;2023-04-24T15:04:03;2.03;;;1.93;;
12846;SDS011;6492;48.128;8.320;2023-04-24T15:08:04;2.10;;;1.90;;
12846;SDS011;6492;48.128;8.320;2023-04-24T15:12:06;2.20;;;2.00;;
12846;SDS011;6492;48.128;8.320;2023-04-24T15:16:27;2.63;;;2.13;;
12846;SDS011;6492;48.128;8.320;2023-04-24T15:20:29;3.53;;;2.20;;
12846;SDS011;6492;48.128;8.320;2023-04-24T15:24:31;6.20;;;2.50;;
12846;SDS011;6492;48.128;8.320;2023-04-24T15:28:48;2.50;;;2.30;;
12846;SDS011;6492;48.128;8.320;2023-04-24T15:32:51;2.73;;;2.50;;
12846;SDS011;6492;48.128;8.320;2023-04-24T15:36:53;2.57;;;2.37;;
12846;SDS011;6492;48.128;8.320;2023-04-24T15:40:55;3.60;;;2.60;;
12846;SDS011;6492;48.128;8.320;2023-04-24T15:44:57;3.40;;;2.40;;
12846;SDS011;6492;48.128;8.320;2023-04-24T15:49:00;3.50;;;2.80;;
12846;SDS011;6492;48.128;8.320;2023-04-24T15:53:02;4.47;;;3.00;;
12846;SDS011;6492;48.128;8.320;2023-04-24T15:57:03;3.93;;;2.83;;
12846;SDS011;6492;48.128;8.320;2023-04-24T16:01:05;4.17;;;2.60;;
12846;SDS011;6492;48.128;8.320;2023-04-24T16:05:17;2.50;;;2.30;;
12846;SDS011;6492;48.128;8.320;2023-04-24T16:09:21;3.43;;;2.47;;
12846;SDS011;6492;48.128;8.320;2023-04-24T16:13:23;2.83;;;2.60;;
12846;SDS011;6492;48.128;8.320;2023-04-24T16:17:37;2.60;;;2.40;;
12846;SDS011;6492;48.128;8.320;2023-04-24T16:21:41;3.93;;;2.40;;
12846;SDS011;6492;48.128;8.320;2023-04-24T16:25:50;2.97;;;2.50;;
12846;SDS011;6492;48.128;8.320;2023-04-24T16:29:52;2.57;;;2.27;;
12846;SDS011;6492;48.128;8.320;2023-04-24T16:33:53;4.93;;;2.70;;
12846;SDS011;6492;48.128;8.320;2023-04-24T16:37:57;4.63;;;2.93;;
12846;SDS011;6492;48.128;8.320;2023-04-24T16:41:59;6.53;;;2.90;;
12846;SDS011;6492;48.128;8.320;2023-04-24T16:46:01;4.57;;;2.90;;
12846;SDS011;6492;48.128;8.320;2023-04-24T16:50:04;4.63;;;3.50;;
12846;SDS011;6492;48.128;8.320;2023-04-24T16:54:08;3.43;;;2.83;;
12846;SDS011;6492;48.128;8.320;2023-04-24T16:58:10;3.40;;;2.83;;
12846;SDS011;6492;48.128;8.320;2023-04-24T17:02:12;3.43;;;3.00;;
12846;SDS011;6492;48.128;8.320;2023-04-24T17:06:14;3.27;;;2.37;;
12846;SDS011;6492;48.128;8.320;2023-04-24T17:10:17;4.17;;;3.13;;
12846;SDS011;6492;48.128;8.320;2023-04-24T17:14:19;3.43;;;3.13;;
12846;SDS011;6492;48.128;8.320;2023-04-24T17:18:23;3.80;;;2.70;;
12846;SDS011;6492;48.128;8.320;2023-04-24T17:22:33;5.07;;;3.20;;
12846;SDS011;6492;48.128;8.320;2023-04-24T17:26:38;6.83;;;3.57;;
12846;SDS011;6492;48.128;8.320;2023-04-24T17:30:40;4.73;;;3.50;;
12846;SDS011;6492;48.128;8.320;2023-04-24T17:34:42;4.10;;;3.03;;
12846;SDS011;6492;48.128;8.320;2023-04-24T17:38:46;3.50;;;2.90;;
12846;SDS011;6492;48.128;8.320;2023-04-24T17:42:50;4.70;;;3.03;;
12846;SDS011;6492;48.128;8.320;2023-04-24T17:46:52;3.70;;;3.20;;
12846;SDS011;6492;48.128;8.320;2023-04-24T17:50:53;5.03;;;3.47;;
12846;SDS011;6492;48.128;8.320;2023-04-24T17:54:55;4.13;;;2.90;;
12846;SDS011;6492;48.128;8.320;2023-04-24T17:58:59;4.30;;;3.17;;
12846;SDS011;6492;48.128;8.320;2023-04-24T18:03:03;5.23;;;3.43;;
12846;SDS011;6492;48.128;8.320;2023-04-24T18:07:06;5.77;;;3.37;;
12846;SDS011;6492;48.128;8.320;2023-04-24T18:11:08;3.80;;;3.20;;
12846;SDS011;6492;48.128;8.320;2023-04-24T18:15:11;5.27;;;3.30;;
12846;SDS011;6492;48.128;8.320;2023-04-24T18:19:16;4.20;;;3.30;;
12846;SDS011;6492;48.128;8.320;2023-04-24T18:23:17;5.57;;;3.20;;
12846;SDS011;6492;48.128;8.320;2023-04-24T18:27:31;4.17;;;3.77;;
12846;SDS011;6492;48.128;8.320;2023-04-24T18:31:42;4.70;;;3.80;;
12846;SDS011;6492;48.128;8.320;2023-04-24T18:35:46;5.20;;;4.27;;
12846;SDS011;6492;48.128;8.320;2023-04-24T18:40:00;5.00;;;3.63;;
12846;SDS011;6492;48.128;8.320;2023-04-24T18:44:03;3.73;;;3.20;;
12846;SDS011;6492;48.128;8.320;2023-04-24T18:48:07;5.37;;;3.27;;
12846;SDS011;6492;48.128;8.320;2023-04-24T19:00:47;5.57;;;3.53;;
12846;SDS011;6492;48.128;8.320;2023-04-24T19:04:50;5.40;;;3.47;;
12846;SDS011;6492;48.128;8.320;2023-04-24T19:08:51;3.40;;;3.10;;
12846;SDS011;6492;48.128;8.320;2023-04-24T19:13:00;6.63;;;3.50;;
12846;SDS011;6492;48.128;8.320;2023-04-24T19:25:49;5.20;;;3.20;;
12846;SDS011;6492;48.128;8.320;2023-04-24T19:29:54;6.07;;;3.17;;
12846;SDS011;6492;48.128;8.320;2023-04-24T19:33:56;3.60;;;2.90;;
12846;SDS011;6492;48.128;8.320;2023-04-24T19:37:59;5.30;;;3.30;;
12846;SDS011;6492;48.128;8.320;2023-04-24T19:42:01;4.77;;;3.10;;
12846;SDS011;6492;48.128;8.320;2023-04-24T19:46:06;5.43;;;3.00;;
12846;SDS011;6492;48.128;8.320;2023-04-24T19:50:08;5.97;;;3.60;;
12846;SDS011;6492;48.128;8.320;2023-04-24T19:54:11;4.57;;;3.00;;
12846;SDS011;6492;48.128;8.320;2023-04-24T20:06:27;4.53;;;3.43;;
12846;SDS011;6492;48.128;8.320;2023-04-24T20:10:30;6.70;;;3.90;;
12846;SDS011;6492;48.128;8.320;2023-04-24T20:14:32;5.53;;;4.20;;
12846;SDS011;6492;48.128;8.320;2023-04-24T20:18:34;5.30;;;4.03;;
12846;SDS011;6492;48.128;8.320;2023-04-24T20:22:36;7.27;;;4.10;;
12846;SDS011;6492;48.128;8.320;2023-04-24T20:26:39;3.60;;;3.20;;
12846;SDS011;6492;48.128;8.320;2023-04-24T20:30:41;5.00;;;3.50;;
12846;SDS011;6492;48.128;8.320;2023-04-24T20:34:43;6.40;;;3.70;;
12846;SDS011;6492;48.128;8.320;2023-04-24T20:38:59;5.50;;;3.57;;
12846;SDS011;6492;48.128;8.320;2023-04-24T20:43:02;5.57;;;3.00;;
12846;SDS011;6492;48.128;8.320;2023-04-24T20:47:05;4.83;;;3.30;;
12846;SDS011;6492;48.128;8.320;2023-04-24T20:51:07;5.60;;;3.77;;
12846;SDS011;6492;48.128;8.320;2023-04-24T20:55:09;3.30;;;3.00;;
12846;SDS011;6492;48.128;8.320;2023-04-24T20:59:12;4.10;;;2.90;;
12846;SDS011;6492;48.128;8.320;2023-04-24T21:03:14;3.90;;;3.13;;
12846;SDS011;6492;48.128;8.320;2023-04-24T21:07:17;3.20;;;2.80;;
12846;SDS011;6492;48.128;8.320;2023-04-24T21:11:19;4.53;;;3.00;;
12846;SDS011;6492;48.128;8.320;2023-04-24T21:15:22;4.80;;;3.10;;
12846;SDS011;6492;48.128;8.320;2023-04-24T21:19:24;3.93;;;2.40;;
12846;SDS011;6492;48.128;8.320;2023-04-24T21:23:26;5.23;;;3.27;;
12846;SDS011;6492;48.128;8.320;2023-04-24T21:27:28;3.83;;;2.80;;
12846;SDS011;6492;48.128;8.320;2023-04-24T21:31:31;3.60;;;2.67;;
12846;SDS011;6492;48.128;8.320;2023-04-24T21:35:33;3.13;;;2.80;;
12846;SDS011;6492;48.128;8.320;2023-04-24T21:39:35;4.47;;;2.97;;
12846;SDS011;6492;48.128;8.320;2023-04-24T21:43:36;5.13;;;2.87;;
12846;SDS011;6492;48.128;8.320;2023-04-24T21:52:14;3.03;;;2.73;;
12846;SDS011;6492;48.128;8.320;2023-04-24T21:56:16;5.40;;;3.37;;
12846;SDS011;6492;48.128;8.320;2023-04-24T22:00:17;5.17;;;3.00;;
12846;SDS011;6492;48.128;8.320;2023-04-24T22:04:21;7.13;;;3.20;;
12846;SDS011;6492;48.128;8.320;2023-04-24T22:08:23;4.00;;;2.97;;
12846;SDS011;6492;48.128;8.320;2023-04-24T22:12:25;5.80;;;3.20;;
12846;SDS011;6492;48.128;8.320;2023-04-24T22:16:27;3.70;;;2.97;;
12846;SDS011;6492;48.128;8.320;2023-04-24T22:20:30;6.20;;;3.30;;
12846;SDS011;6492;48.128;8.320;2023-04-24T22:24:33;3.23;;;2.87;;
12846;SDS011;6492;48.128;8.320;2023-04-24T22:28:35;3.53;;;3.17;;
12846;SDS011;6492;48.128;8.320;2023-04-24T22:32:36;5.13;;;3.10;;
12846;SDS011;6492;48.128;8.320;2023-04-24T22:36:40;5.80;;;3.37;;
12846;SDS011;6492;48.128;8.320;2023-04-24T22:40:42;4.27;;;3.30;;
12846;SDS011;6492;48.128;8.320;2023-04-24T22:44:43;4.70;;;3.20;;
12846;SDS011;6492;48.128;8.320;2023-04-24T22:48:45;4.70;;;3.33;;
12846;SDS011;6492;48.128;8.320;2023-04-24T22:52:49;4.90;;;3.30;;
12846;SDS011;6492;48.128;8.320;2023-04-24T22:56:53;6.43;;;3.20;;
12846;SDS011;6492;48.128;8.320;2023-04-24T23:00:54;4.07;;;3.07;;
12846;SDS011;6492;48.128;8.320;2023-04-24T23:04:56;4.47;;;3.07;;
12846;SDS011;6492;48.128;8.320;2023-04-24T23:08:59;4.13;;;3.00;;
12846;SDS011;6492;48.128;8.320;2023-04-24T23:13:01;6.17;;;3.40;;
12846;SDS011;6492;48.128;8.320;2023-04-24T23:17:03;3.37;;;2.93;;
12846;SDS011;6492;48.128;8.320;2023-04-24T23:21:05;7.33;;;3.40;;
12846;SDS011;6492;48.128;8.320;2023-04-24T23:25:08;5.57;;;3.47;;
12846;SDS011;6492;48.128;8.320;2023-04-24T23:29:10;5.37;;;3.60;;
12846;SDS011;6492;48.128;8.320;2023-04-24T23:33:12;4.87;;;3.37;;
12846;SDS011;6492;48.128;8.320;2023-04-24T23:41:50;4.67;;;3.23;;
12846;SDS011;6492;48.128;8.320;2023-04-24T23:45:52;5.63;;;3.53;;
12846;SDS011;6492;48.128;8.320;2023-04-24T23:49:54;5.50;;;3.73;;
12846;SDS011;6492;48.128;8.320;2023-04-24T23:53:56;5.77;;;3.50;;
12846;SDS011;6492;48.128;8.320;2023-04-24T23:57:59;5.93;;;3.33;;
